Time;durP1;ratioP1;P1;durP2;ratioP2;P2;SDS_P1;SDS_P2;PMS_P1;PMS_P2;Temp;Humidity;BMP_temperature;BMP_pressure;BME280_temperature;BME280_humidity;BME280_pressure;Samples;Min_cycle;Max_cycle;Signal;HPM_P1;HPM_P2
2023/08/06 00:02:13;;;;;;;14.60;11.75;;;14.20;99.90;;;;;;5014809;27;89339;-36
2023/08/06 00:04:39;;;;;;;11.48;10.27;;;14.20;99.90;;;;;;4997533;28;91050;-37
2023/08/06 00:07:05;;;;;;;11.65;10.32;;;14.20;99.90;;;;;;4995732;28;89522;-34
2023/08/06 00:09:30;;;;;;;11.65;10.27;;;14.20;99.90;;;;;;4996981;28;90064;-36
2023/08/06 00:11:56;;;;;;;13.43;11.50;;;14.20;99.90;;;;;;4997345;28;89265;-33
2023/08/06 00:14:22;;;;;;;12.75;10.77;;;14.20;99.90;;;;;;4997029;28;90194;-34
2023/08/06 00:16:47;;;;;;;12.85;11.55;;;14.20;99.90;;;;;;4996303;28;90517;-32
2023/08/06 00:19:13;;;;;;;12.65;11.13;;;14.20;99.90;;;;;;4997615;28;89644;-34
2023/08/06 00:21:39;;;;;;;12.93;11.15;;;14.10;99.90;;;;;;4995462;28;89406;-34
2023/08/06 00:24:04;;;;;;;12.93;10.82;;;14.10;99.90;;;;;;5005368;28;90045;-32
2023/08/06 00:26:30;;;;;;;12.25;11.02;;;14.10;99.90;;;;;;4999806;28;89728;-32
2023/08/06 00:28:55;;;;;;;14.77;11.18;;;14.10;99.90;;;;;;4996699;28;89564;-33
2023/08/06 00:31:21;;;;;;;13.18;11.80;;;14.10;99.90;;;;;;4992825;28;89150;-34
2023/08/06 00:33:47;;;;;;;11.43;10.32;;;14.10;99.90;;;;;;4992617;28;90672;-35
2023/08/06 00:36:12;;;;;;;12.80;11.50;;;14.10;99.90;;;;;;5001514;28;89583;-33
2023/08/06 00:38:38;;;;;;;11.05;9.95;;;14.10;99.90;;;;;;4993279;28;89066;-33
2023/08/06 00:41:03;;;;;;;11.85;10.50;;;14.10;99.90;;;;;;4999168;28;89178;-33
2023/08/06 00:43:29;;;;;;;11.93;10.68;;;14.10;99.90;;;;;;4991237;28;90351;-33
2023/08/06 00:45:55;;;;;;;13.18;11.77;;;14.10;99.90;;;;;;4993063;28;90449;-32
2023/08/06 00:48:21;;;;;;;11.52;10.13;;;14.10;99.90;;;;;;4991652;28;90929;-33
2023/08/06 00:50:47;;;;;;;14.27;11.80;;;14.10;99.90;;;;;;4988930;28;89962;-36
2023/08/06 00:53:13;;;;;;;11.68;10.48;;;14.00;99.90;;;;;;4992094;28;90154;-32
2023/08/06 00:55:39;;;;;;;11.65;10.45;;;14.10;99.90;;;;;;4979820;28;90066;-33
2023/08/06 00:58:05;;;;;;;13.77;11.43;;;14.10;99.90;;;;;;4997215;28;89257;-32
2023/08/06 01:00:31;;;;;;;13.88;11.35;;;14.10;99.90;;;;;;4993941;28;89032;-35
2023/08/06 01:02:57;;;;;;;12.73;11.27;;;14.10;99.90;;;;;;5009978;28;91568;-34
2023/08/06 01:05:23;;;;;;;11.45;10.27;;;14.20;99.90;;;;;;4996832;28;89156;-35
2023/08/06 01:08:12;;;;;;;12.48;11.05;;;14.20;99.90;;;;;;4998210;28;88875;-32
2023/08/06 01:11:02;;;;;;;11.52;10.30;;;14.20;99.90;;;;;;4992841;28;89083;-35
2023/08/06 01:13:53;;;;;;;12.88;11.52;;;14.10;99.90;;;;;;4978419;28;90590;-36
2023/08/06 01:16:20;;;;;;;13.15;11.50;;;14.20;99.90;;;;;;4980520;28;90237;-35
2023/08/06 01:18:49;;;;;;;12.40;11.18;;;14.20;99.90;;;;;;4986561;28;89600;-36
2023/08/06 01:21:18;;;;;;;11.70;10.50;;;14.20;99.90;;;;;;4987987;28;88275;-32
2023/08/06 01:23:46;;;;;;;13.63;11.38;;;14.20;99.90;;;;;;4988075;28;89006;-33
2023/08/06 01:26:17;;;;;;;12.30;10.48;;;14.20;99.90;;;;;;4987175;28;89947;-32
2023/08/06 01:28:51;;;;;;;12.23;10.95;;;14.20;99.90;;;;;;4984514;28;89175;-36
2023/08/06 01:31:30;;;;;;;11.57;10.43;;;14.10;99.90;;;;;;5000360;28;89074;-35
2023/08/06 01:33:56;;;;;;;;;;;14.10;99.90;;;;;;4982959;28;90271;-31
2023/08/06 01:36:22;;;;;;;12.90;11.55;;;14.10;99.90;;;;;;4990061;28;90619;-32
2023/08/06 01:38:48;;;;;;;12.40;11.20;;;14.20;99.90;;;;;;4981061;28;89930;-35
2023/08/06 01:41:14;;;;;;;13.40;12.15;;;14.20;99.90;;;;;;4980512;28;89351;-34
2023/08/06 01:43:39;;;;;;;13.65;12.25;;;14.30;99.90;;;;;;4981710;28;90461;-37
2023/08/06 01:46:05;;;;;;;13.48;12.07;;;14.30;99.90;;;;;;4963451;28;90838;-36
2023/08/06 01:48:31;;;;;;;13.65;12.25;;;14.20;99.90;;;;;;4987185;28;90088;-34
2023/08/06 01:50:56;;;;;;;13.35;12.05;;;14.20;99.90;;;;;;4988875;28;89245;-36
2023/08/06 01:53:22;;;;;;;13.05;11.75;;;14.30;99.90;;;;;;4994306;28;90336;-34
2023/08/06 01:55:48;;;;;;;14.27;12.63;;;14.20;99.90;;;;;;4994405;28;89857;-32
2023/08/06 01:58:14;;;;;;;18.42;12.07;;;14.20;99.90;;;;;;4983223;28;89131;-36
2023/08/06 02:00:40;;;;;;;16.38;13.05;;;14.30;99.90;;;;;;4986406;28;90164;-38
2023/08/06 02:03:06;;;;;;;15.38;13.68;;;14.20;99.90;;;;;;4989466;28;90256;-32
2023/08/06 02:05:32;;;;;;;16.67;12.43;;;14.30;99.90;;;;;;4992795;28;89852;-32
2023/08/06 02:07:57;;;;;;;17.42;13.15;;;14.30;99.90;;;;;;4989097;28;89664;-31
2023/08/06 02:10:23;;;;;;;14.18;12.77;;;14.20;99.90;;;;;;4983542;28;88117;-36
2023/08/06 02:12:48;;;;;;;14.23;12.73;;;14.20;99.90;;;;;;4984794;28;90027;-32
2023/08/06 02:15:14;;;;;;;16.85;13.65;;;14.20;99.90;;;;;;4981462;28;89878;-35
2023/08/06 02:17:40;;;;;;;15.05;13.45;;;14.20;99.90;;;;;;4987275;28;91349;-33
2023/08/06 02:20:06;;;;;;;16.63;14.48;;;14.20;99.90;;;;;;4993364;28;90043;-33
2023/08/06 02:22:32;;;;;;;16.63;12.73;;;14.20;99.90;;;;;;4985688;28;90654;-38
2023/08/06 02:24:57;;;;;;;15.15;13.40;;;14.20;99.90;;;;;;4981868;28;90537;-34
2023/08/06 02:27:23;;;;;;;15.02;13.45;;;14.20;99.90;;;;;;4985003;28;90778;-34
2023/08/06 02:29:48;;;;;;;21.33;14.15;;;14.20;99.90;;;;;;4984557;28;88903;-34
2023/08/06 02:32:14;;;;;;;16.77;14.63;;;14.20;99.90;;;;;;4978959;28;90118;-35
2023/08/06 02:34:40;;;;;;;15.65;14.05;;;14.20;99.90;;;;;;4979756;28;89979;-34
2023/08/06 02:37:05;;;;;;;15.73;14.13;;;14.10;99.90;;;;;;4979926;28;90065;-31
2023/08/06 02:39:31;;;;;;;15.88;13.80;;;14.10;99.90;;;;;;4979515;28;89602;-32
2023/08/06 02:41:56;;;;;;;15.55;12.98;;;14.10;99.90;;;;;;5006515;28;90206;-37
2023/08/06 02:44:22;;;;;;;17.98;15.10;;;14.20;99.90;;;;;;4979536;28;89887;-30
2023/08/06 02:46:48;;;;;;;14.93;12.98;;;14.20;99.90;;;;;;4985178;28;89158;-34
2023/08/06 02:49:13;;;;;;;16.50;13.20;;;14.20;99.90;;;;;;4987233;28;90459;-36
2023/08/06 02:51:39;;;;;;;15.32;13.73;;;14.20;99.90;;;;;;4998267;28;89518;-34
2023/08/06 02:54:04;;;;;;;14.98;13.18;;;14.10;99.90;;;;;;4987343;28;90114;-35
2023/08/06 02:56:30;;;;;;;15.48;13.55;;;14.10;99.90;;;;;;4991614;28;89642;-34
2023/08/06 02:58:56;;;;;;;14.75;12.88;;;14.10;99.90;;;;;;4980067;28;87578;-33
2023/08/06 03:01:23;;;;;;;15.73;13.48;;;14.10;99.90;;;;;;4995685;28;90247;-36
2023/08/06 03:03:48;;;;;;;13.70;12.38;;;14.10;99.90;;;;;;4990486;28;89760;-31
2023/08/06 03:06:14;;;;;;;14.32;12.93;;;14.00;99.90;;;;;;4991587;28;89256;-32
2023/08/06 03:08:40;;;;;;;15.30;13.52;;;14.00;99.90;;;;;;4979392;28;88673;-34
2023/08/06 03:11:05;;;;;;;15.60;13.50;;;14.00;99.90;;;;;;4980243;28;90567;-34
2023/08/06 03:13:31;;;;;;;15.13;13.63;;;14.00;99.90;;;;;;4978927;28;89581;-34
2023/08/06 03:15:58;;;;;;;14.05;12.65;;;14.00;99.90;;;;;;4980594;28;90152;-31
2023/08/06 03:18:25;;;;;;;14.43;12.97;;;14.10;99.90;;;;;;4981651;28;89348;-32
2023/08/06 03:20:51;;;;;;;16.13;13.30;;;14.00;99.90;;;;;;4998143;28;90298;-38
2023/08/06 03:23:17;;;;;;;15.45;13.88;;;14.00;99.90;;;;;;4998131;28;89656;-35
2023/08/06 03:25:44;;;;;;;16.50;14.05;;;13.90;99.90;;;;;;4999089;28;89564;-34
2023/08/06 03:28:10;;;;;;;14.15;12.75;;;13.90;99.90;;;;;;4998152;28;88441;-31
2023/08/06 03:30:35;;;;;;;18.13;13.85;;;13.80;99.90;;;;;;4999505;28;91636;-34
2023/08/06 03:33:01;;;;;;;15.80;13.57;;;13.80;99.90;;;;;;4998523;28;90361;-35
2023/08/06 03:35:26;;;;;;;17.25;13.85;;;13.70;99.90;;;;;;4981593;28;90129;-35
2023/08/06 03:37:52;;;;;;;15.40;13.90;;;13.70;99.90;;;;;;4980772;28;89178;-33
2023/08/06 03:40:18;;;;;;;15.93;14.25;;;13.80;99.90;;;;;;4982421;28;90242;-37
2023/08/06 03:42:43;;;;;;;16.83;13.77;;;13.70;99.90;;;;;;4981536;28;89489;-35
2023/08/06 03:45:09;;;;;;;16.35;14.55;;;13.70;99.90;;;;;;4982282;28;89511;-35
2023/08/06 03:47:35;;;;;;;16.92;14.57;;;13.70;99.90;;;;;;4981153;28;90350;-33
2023/08/06 03:50:00;;;;;;;18.33;14.18;;;13.70;99.90;;;;;;4993466;28;90242;-32
2023/08/06 03:52:26;;;;;;;14.57;13.10;;;13.70;99.90;;;;;;4981107;28;89517;-33
2023/08/06 03:54:52;;;;;;;15.93;14.23;;;13.60;99.90;;;;;;4982601;28;89615;-31
2023/08/06 03:57:17;;;;;;;15.43;13.82;;;13.60;99.90;;;;;;4981249;28;88783;-33
2023/08/06 03:59:43;;;;;;;17.10;13.90;;;13.50;99.90;;;;;;4981664;28;89933;-32
2023/08/06 04:02:09;;;;;;;13.52;12.13;;;13.50;99.90;;;;;;5004094;28;91260;-33
2023/08/06 04:04:34;;;;;;;15.48;13.52;;;13.60;99.90;;;;;;4978857;28;90441;-33
2023/08/06 04:07:00;;;;;;;15.73;13.65;;;13.50;99.90;;;;;;4980107;28;89921;-32
2023/08/06 04:09:28;;;;;;;15.80;13.45;;;13.50;99.90;;;;;;4998318;28;90138;-40
2023/08/06 04:11:54;;;;;;;;;;;13.50;99.90;;;;;;4985898;28;89620;-39
2023/08/06 04:14:19;;;;;;;16.90;13.63;;;13.50;99.90;;;;;;4991227;28;89949;-32
2023/08/06 04:16:45;;;;;;;14.50;12.38;;;13.50;99.90;;;;;;4979425;28;89718;-39
2023/08/06 04:19:10;;;;;;;15.55;13.82;;;13.40;99.90;;;;;;4979277;28;90315;-35
2023/08/06 04:21:36;;;;;;;16.17;14.45;;;13.50;99.90;;;;;;4978720;28;89555;-32
2023/08/06 04:24:02;;;;;;;15.38;13.70;;;13.50;99.90;;;;;;4979814;28;89372;-33
2023/08/06 04:26:28;;;;;;;17.20;15.10;;;13.50;99.90;;;;;;4972500;28;88603;-36
2023/08/06 04:28:53;;;;;;;15.93;14.00;;;13.60;99.90;;;;;;4982935;28;90121;-35
2023/08/06 04:31:19;;;;;;;15.60;12.88;;;13.60;99.90;;;;;;4987101;28;89787;-35
2023/08/06 04:33:45;;;;;;;16.20;14.07;;;13.60;99.90;;;;;;4978124;28;88537;-34
2023/08/06 04:36:11;;;;;;;14.18;12.73;;;13.50;99.90;;;;;;5000422;28;89151;-31
2023/08/06 04:38:38;;;;;;;17.88;13.35;;;13.50;99.90;;;;;;5003764;28;90273;-35
2023/08/06 04:41:04;;;;;;;17.17;14.15;;;13.50;99.90;;;;;;4993935;28;89516;-39
2023/08/06 04:43:29;;;;;;;16.60;14.90;;;13.50;99.90;;;;;;4983334;28;89531;-33
2023/08/06 04:45:56;;;;;;;17.25;13.98;;;13.50;99.90;;;;;;4986324;28;88914;-34
2023/08/06 04:48:22;;;;;;;15.45;13.85;;;13.60;99.90;;;;;;4984084;28;89932;-33
2023/08/06 04:50:50;;;;;;;22.60;16.50;;;13.70;99.90;;;;;;4989178;28;89567;-32
2023/08/06 04:53:16;;;;;;;18.65;15.40;;;13.90;99.90;;;;;;4986933;28;89933;-36
2023/08/06 04:55:42;;;;;;;15.40;13.90;;;14.00;99.90;;;;;;5001614;28;89263;-38
2023/08/06 04:58:10;;;;;;;17.58;14.82;;;14.10;99.90;;;;;;5000400;28;90317;-33
2023/08/06 05:00:36;;;;;;;16.10;13.32;;;14.20;99.90;;;;;;5002247;28;89789;-37
2023/08/06 05:03:02;;;;;;;16.50;14.77;;;14.30;99.90;;;;;;5012728;28;89252;-34
2023/08/06 05:05:28;;;;;;;15.15;13.55;;;14.40;99.90;;;;;;5001032;28;90395;-33
2023/08/06 05:07:55;;;;;;;15.55;13.95;;;14.50;99.90;;;;;;5000778;28;89454;-33
2023/08/06 05:10:21;;;;;;;10.50;7.30;;;14.60;99.90;;;;;;5000919;28;89364;-32
2023/08/06 05:12:47;;;;;;;15.70;14.05;;;14.60;99.90;;;;;;5012512;28;89822;-34
2023/08/06 05:15:12;;;;;;;15.02;13.43;;;14.50;99.90;;;;;;4996815;28;89296;-33
2023/08/06 05:17:38;;;;;;;15.23;13.68;;;14.50;99.90;;;;;;5000611;28;90622;-31
2023/08/06 05:20:04;;;;;;;17.17;14.70;;;14.50;99.90;;;;;;4998244;28;89775;-36
2023/08/06 05:22:30;;;;;;;16.27;14.40;;;14.50;99.90;;;;;;4999898;28;89220;-37
2023/08/06 05:24:55;;;;;;;15.05;13.55;;;14.40;99.90;;;;;;4999801;28;89305;-34
2023/08/06 05:27:21;;;;;;;15.88;14.27;;;14.30;99.90;;;;;;4999085;28;90397;-35
2023/08/06 05:29:48;;;;;;;14.80;13.27;;;14.30;99.90;;;;;;5000094;28;90813;-35
2023/08/06 05:32:13;;;;;;;14.43;13.02;;;14.30;99.90;;;;;;5000338;28;89767;-32
2023/08/06 05:34:39;;;;;;;14.57;12.85;;;14.40;99.90;;;;;;5013034;28;89469;-38
2023/08/06 05:37:05;;;;;;;16.00;14.30;;;14.40;99.90;;;;;;5001078;28;90183;-34
2023/08/06 05:39:30;;;;;;;18.75;16.15;;;14.50;99.90;;;;;;4999399;28;90679;-36
2023/08/06 05:41:56;;;;;;;16.05;14.38;;;14.40;99.90;;;;;;5000429;28;90322;-35
2023/08/06 05:44:23;;;;;;;18.10;14.73;;;14.40;99.90;;;;;;5000498;28;89443;-32
2023/08/06 05:46:49;;;;;;;16.83;15.23;;;14.40;99.90;;;;;;4999819;28;90783;-37
2023/08/06 05:49:15;;;;;;;19.92;16.98;;;14.40;99.90;;;;;;5000208;28;89803;-34
2023/08/06 05:51:41;;;;;;;16.58;14.88;;;14.50;99.90;;;;;;4999248;28;89964;-30
2023/08/06 05:54:07;;;;;;;18.08;16.38;;;14.50;99.90;;;;;;5000351;28;88317;-38
2023/08/06 05:56:33;;;;;;;17.52;15.73;;;14.50;99.90;;;;;;4981845;28;90232;-35
2023/08/06 05:58:58;;;;;;;16.35;13.95;;;14.50;99.90;;;;;;5012622;27;89494;-38
2023/08/06 06:01:24;;;;;;;17.10;14.75;;;14.50;99.90;;;;;;5007484;28;89586;-32
2023/08/06 06:03:50;;;;;;;17.85;16.02;;;14.50;99.90;;;;;;4988780;28;89022;-30
2023/08/06 06:06:16;;;;;;;20.05;15.20;;;14.50;99.90;;;;;;4989013;28;89633;-35
2023/08/06 06:08:42;;;;;;;16.33;14.70;;;14.50;99.90;;;;;;4997774;28;89994;-37
2023/08/06 06:11:07;;;;;;;17.00;15.25;;;14.40;99.90;;;;;;4979926;28;89884;-35
2023/08/06 06:13:33;;;;;;;16.50;14.73;;;14.40;99.90;;;;;;4980368;28;89107;-33
2023/08/06 06:15:58;;;;;;;16.33;14.60;;;14.40;99.90;;;;;;4979594;28;90473;-36
2023/08/06 06:18:24;;;;;;;16.52;14.82;;;14.40;99.90;;;;;;4980759;28;89479;-37
2023/08/06 06:20:50;;;;;;;15.98;14.48;;;14.50;99.90;;;;;;4980923;28;89625;-34
2023/08/06 06:23:15;;;;;;;17.75;15.98;;;14.50;99.90;;;;;;4996653;28;87817;-34
2023/08/06 06:25:48;;;;;;;17.90;15.35;;;14.50;99.90;;;;;;4990203;28;89273;-34
2023/08/06 06:28:13;;;;;;;14.43;13.00;;;14.50;99.90;;;;;;4983737;28;91371;-36
2023/08/06 06:30:41;;;;;;;16.00;14.38;;;14.50;99.90;;;;;;4994477;28;90502;-34
2023/08/06 06:33:07;;;;;;;12.23;8.05;;;14.60;99.90;;;;;;4994695;28;89031;-36
2023/08/06 06:35:33;;;;;;;15.90;14.30;;;14.50;99.90;;;;;;4995620;28;90159;-36
2023/08/06 06:37:59;;;;;;;19.27;15.15;;;14.60;99.90;;;;;;4989035;28;90623;-36
2023/08/06 06:40:25;;;;;;;18.20;14.52;;;14.70;99.90;;;;;;4993277;28;89640;-38
2023/08/06 06:42:51;;;;;;;17.30;15.55;;;14.80;99.90;;;;;;4995267;28;88734;-37
2023/08/06 06:45:16;;;;;;;18.42;15.45;;;14.80;99.90;;;;;;4993212;28;90458;-33
2023/08/06 06:47:42;;;;;;;17.38;14.80;;;14.80;99.90;;;;;;4992073;28;89763;-36
2023/08/06 06:50:08;;;;;;;15.93;14.18;;;14.80;99.90;;;;;;4992555;28;88984;-34
2023/08/06 06:52:34;;;;;;;15.55;14.02;;;14.90;99.90;;;;;;4981238;28;89812;-31
2023/08/06 06:54:59;;;;;;;15.95;14.45;;;14.90;99.90;;;;;;4994620;28;90514;-32
2023/08/06 06:57:25;;;;;;;16.38;14.63;;;15.00;99.90;;;;;;5000003;28;89128;-33
2023/08/06 06:59:51;;;;;;;15.25;13.75;;;15.00;99.90;;;;;;4992388;28;89842;-33
2023/08/06 07:02:16;;;;;;;15.32;13.73;;;15.00;99.90;;;;;;4989689;28;89697;-31
2023/08/06 07:04:42;;;;;;;14.35;13.02;;;15.10;99.90;;;;;;4998837;28;89981;-33
2023/08/06 07:07:07;;;;;;;17.73;15.30;;;15.00;99.90;;;;;;4977204;28;90108;-33
2023/08/06 07:09:33;;;;;;;16.20;14.32;;;15.10;99.90;;;;;;4986112;28;89177;-35
2023/08/06 07:11:59;;;;;;;15.65;14.20;;;15.10;99.90;;;;;;4987873;28;90147;-34
2023/08/06 07:14:28;;;;;;;16.42;14.82;;;15.10;99.90;;;;;;4992989;28;89992;-32
2023/08/06 07:16:54;;;;;;;17.27;15.48;;;15.10;99.90;;;;;;4997051;28;89986;-37
2023/08/06 07:19:20;;;;;;;14.45;13.13;;;15.10;99.90;;;;;;5003957;28;90469;-35
2023/08/06 07:21:46;;;;;;;15.70;14.10;;;15.20;99.90;;;;;;5005276;28;89513;-36
2023/08/06 07:24:12;;;;;;;16.45;14.45;;;15.20;99.90;;;;;;4994339;28;90052;-32
2023/08/06 07:26:38;;;;;;;15.40;13.77;;;15.30;99.90;;;;;;4990813;28;90408;-33
2023/08/06 07:29:03;;;;;;;16.80;15.02;;;15.30;99.90;;;;;;4994177;28;89514;-38
2023/08/06 07:31:29;;;;;;;15.73;14.23;;;15.40;99.90;;;;;;4999752;28;89999;-33
2023/08/06 07:33:54;;;;;;;15.02;13.48;;;15.40;99.90;;;;;;4996205;28;90480;-34
2023/08/06 07:36:20;;;;;;;18.67;14.77;;;15.40;99.90;;;;;;4996145;28;90378;-31
2023/08/06 07:38:47;;;;;;;17.63;13.57;;;15.50;99.90;;;;;;4995465;28;89544;-33
2023/08/06 07:41:12;;;;;;;17.25;15.05;;;15.50;99.90;;;;;;4995198;28;88991;-34
2023/08/06 07:43:38;;;;;;;17.10;15.43;;;15.50;99.90;;;;;;4995174;28;90052;-34
2023/08/06 07:46:04;;;;;;;16.85;14.40;;;15.50;99.90;;;;;;4988052;28;90342;-33
2023/08/06 07:48:29;;;;;;;14.48;12.77;;;15.60;99.90;;;;;;4986705;28;90258;-32
2023/08/06 07:50:55;;;;;;;19.92;14.25;;;15.60;99.90;;;;;;4982621;28;89312;-32
2023/08/06 07:53:22;;;;;;;16.77;14.10;;;15.60;99.90;;;;;;4990881;28;89772;-36
2023/08/06 07:55:50;;;;;;;17.33;15.57;;;15.60;99.90;;;;;;4980375;28;88583;-33
2023/08/06 07:58:16;;;;;;;16.77;15.15;;;15.70;99.90;;;;;;4977127;28;91905;-35
2023/08/06 08:00:45;;;;;;;16.13;13.88;;;15.80;99.90;;;;;;4981514;28;90728;-35
2023/08/06 08:03:14;;;;;;;16.48;14.77;;;15.80;99.90;;;;;;5002192;28;90705;-35
2023/08/06 08:05:40;;;;;;;16.33;13.05;;;15.80;99.90;;;;;;4992964;28;90705;-36
2023/08/06 08:08:06;;;;;;;14.32;13.00;;;15.90;99.90;;;;;;4994021;28;90315;-31
2023/08/06 08:10:33;;;;;;;13.23;12.00;;;16.00;99.90;;;;;;4989527;28;89269;-34
2023/08/06 08:12:59;;;;;;;13.52;12.25;;;16.00;99.90;;;;;;4978964;28;90864;-31
2023/08/06 08:15:28;;;;;;;14.20;12.90;;;16.00;99.90;;;;;;5034388;22;89663;-31
2023/08/06 08:17:53;;;;;;;13.93;12.52;;;16.00;99.90;;;;;;4997641;27;89281;-34
2023/08/06 08:20:19;;;;;;;15.68;14.15;;;16.10;99.90;;;;;;5010382;27;88459;-35
2023/08/06 08:22:44;;;;;;;14.52;13.13;;;16.10;99.90;;;;;;4997781;28;89952;-34
2023/08/06 08:25:10;;;;;;;14.00;12.63;;;16.10;99.90;;;;;;5004337;27;89908;-32
2023/08/06 08:27:36;;;;;;;13.95;12.65;;;16.10;99.90;;;;;;4980479;28;89920;-37
2023/08/06 08:30:01;;;;;;;22.02;12.30;;;16.20;99.90;;;;;;5010503;27;89517;-36
2023/08/06 08:32:27;;;;;;;14.60;13.18;;;16.30;99.90;;;;;;5008379;27;89826;-34
2023/08/06 08:34:53;;;;;;;15.18;13.65;;;16.20;99.90;;;;;;5008649;27;90309;-31
2023/08/06 08:37:19;;;;;;;13.40;12.00;;;16.30;99.90;;;;;;5015825;27;89550;-37
2023/08/06 08:39:44;;;;;;;14.10;12.60;;;16.30;99.90;;;;;;5015981;28;88506;-32
2023/08/06 08:42:10;;;;;;;14.57;13.07;;;16.30;99.90;;;;;;5014819;27;90774;-32
2023/08/06 08:44:39;;;;;;;14.07;12.43;;;16.40;99.90;;;;;;5014784;27;89915;-34
2023/08/06 08:47:10;;;;;;;14.98;13.60;;;16.50;99.90;;;;;;5016083;27;89528;-36
2023/08/06 08:49:37;;;;;;;14.88;13.45;;;16.60;99.90;;;;;;5016423;28;88495;-34
2023/08/06 08:52:07;;;;;;;14.18;12.77;;;16.70;99.90;;;;;;5015379;28;90024;-34
2023/08/06 08:54:34;;;;;;;13.57;12.35;;;16.70;99.90;;;;;;5014794;27;90327;-32
2023/08/06 08:56:59;;;;;;;15.52;13.68;;;16.80;99.90;;;;;;5004596;27;89835;-34
2023/08/06 08:59:26;;;;;;;15.48;12.98;;;16.80;99.90;;;;;;4995878;27;89017;-33
2023/08/06 09:01:53;;;;;;;13.77;12.43;;;16.80;99.90;;;;;;5013157;27;92326;-35
2023/08/06 09:04:19;;;;;;;13.13;11.77;;;16.90;99.90;;;;;;5019559;27;89355;-36
2023/08/06 09:06:50;;;;;;;12.70;11.40;;;17.00;99.90;;;;;;5010984;27;88903;-35
2023/08/06 09:09:37;;;;;;;12.18;11.00;;;17.00;99.90;;;;;;5012352;28;88085;-35
2023/08/06 09:12:14;;;;;;;12.93;11.82;;;17.10;99.90;;;;;;5009563;27;88779;-34
2023/08/06 09:14:40;;;;;;;13.95;12.65;;;17.10;99.90;;;;;;5014505;27;90950;-36
2023/08/06 09:17:06;;;;;;;12.05;10.95;;;17.20;99.90;;;;;;5014813;27;89543;-32
2023/08/06 09:19:31;;;;;;;15.75;12.18;;;17.40;99.90;;;;;;5013894;27;88660;-37
2023/08/06 09:21:57;;;;;;;11.85;10.57;;;17.50;99.90;;;;;;5014182;28;89123;-35
2023/08/06 09:24:23;;;;;;;15.00;12.30;;;17.70;99.90;;;;;;5013430;27;89927;-35
2023/08/06 09:26:49;;;;;;;13.48;12.18;;;17.80;99.90;;;;;;5015078;27;90118;-32
2023/08/06 09:29:14;;;;;;;13.52;12.15;;;18.00;99.90;;;;;;5014522;27;89362;-37
2023/08/06 09:31:48;;;;;;;11.77;10.68;;;18.00;99.90;;;;;;5014160;27;90412;-36
2023/08/06 09:34:23;;;;;;;12.27;11.10;;;18.00;99.90;;;;;;5014431;27;89370;-34
2023/08/06 09:36:51;;;;;;;12.57;11.48;;;17.90;99.90;;;;;;5018798;27;89623;-32
2023/08/06 09:39:18;;;;;;;12.38;11.18;;;17.80;99.90;;;;;;5018445;27;89820;-34
2023/08/06 09:41:44;;;;;;;10.95;9.82;;;17.90;99.90;;;;;;5017310;27;90774;-33
2023/08/06 09:44:24;;;;;;;11.80;10.68;;;17.80;99.90;;;;;;5017893;28;90564;-36
2023/08/06 09:46:55;;;;;;;11.45;10.25;;;17.90;99.90;;;;;;5017335;27;90343;-33
2023/08/06 09:49:25;;;;;;;10.82;9.88;;;17.90;99.90;;;;;;5017336;27;89336;-33
2023/08/06 09:51:53;;;;;;;12.13;10.95;;;18.00;99.90;;;;;;5017694;27;90346;-35
2023/08/06 09:54:19;;;;;;;13.20;12.00;;;18.00;99.90;;;;;;5017211;27;90239;-36
2023/08/06 09:56:45;;;;;;;12.25;11.15;;;18.00;99.90;;;;;;5014245;27;89238;-34
2023/08/06 09:59:14;;;;;;;10.75;9.70;;;18.00;99.90;;;;;;5016859;27;89296;-35
2023/08/06 10:01:39;;;;;;;12.95;10.50;;;18.10;99.90;;;;;;5008815;28;90069;-36
2023/08/06 10:04:10;;;;;;;10.20;9.30;;;18.10;99.90;;;;;;5013409;27;89517;-36
2023/08/06 10:06:36;;;;;;;10.80;9.90;;;18.20;99.90;;;;;;4998419;28;90132;-37
2023/08/06 10:09:03;;;;;;;11.15;10.13;;;18.30;99.90;;;;;;4998600;27;89985;-33
2023/08/06 10:11:30;;;;;;;10.95;9.77;;;18.40;99.90;;;;;;4997487;27;90140;-37
2023/08/06 10:14:03;;;;;;;9.50;8.63;;;18.40;99.90;;;;;;4998795;27;90040;-34
2023/08/06 10:16:30;;;;;;;9.88;8.98;;;18.60;99.90;;;;;;5010173;27;90962;-36
2023/08/06 10:18:56;;;;;;;9.90;9.10;;;19.00;99.90;;;;;;4998508;28;89710;-37
2023/08/06 10:21:24;;;;;;;8.82;7.93;;;19.20;99.90;;;;;;4998142;27;90660;-34
2023/08/06 10:23:54;;;;;;;9.40;8.43;;;19.30;99.90;;;;;;4998569;27;89564;-34
2023/08/06 10:26:20;;;;;;;9.70;8.40;;;19.30;99.90;;;;;;5011661;27;89740;-33
2023/08/06 10:28:46;;;;;;;9.32;8.43;;;19.50;99.90;;;;;;5000869;27;89648;-32
2023/08/06 10:31:11;;;;;;;8.00;7.30;;;19.70;99.90;;;;;;5010297;27;89838;-32
2023/08/06 10:33:45;;;;;;;8.40;7.70;;;19.90;99.90;;;;;;5008567;27;90523;-32
2023/08/06 10:36:12;;;;;;;6.18;5.35;;;19.90;99.90;;;;;;5012010;27;89719;-37
2023/08/06 10:38:50;;;;;;;6.25;5.75;;;19.90;99.90;;;;;;5018746;28;89593;-32
2023/08/06 10:41:29;;;;;;;7.65;6.40;;;20.00;99.90;;;;;;5007024;27;89013;-33
2023/08/06 10:44:08;;;;;;;6.95;6.25;;;20.00;99.90;;;;;;5012421;28;89612;-36
2023/08/06 10:46:34;;;;;;;6.90;6.30;;;20.10;99.90;;;;;;5016791;27;89272;-36
2023/08/06 10:49:00;;;;;;;7.05;6.07;;;20.00;99.90;;;;;;5010690;27;89623;-32
2023/08/06 10:51:27;;;;;;;6.55;6.00;;;20.20;99.90;;;;;;5015462;27;89885;-34
2023/08/06 10:53:53;;;;;;;9.52;6.63;;;20.30;99.90;;;;;;5009376;27;89647;-35
2023/08/06 10:56:23;;;;;;;6.57;5.47;;;20.30;99.90;;;;;;5011250;27;88937;-35
2023/08/06 10:58:50;;;;;;;5.80;5.30;;;20.30;99.90;;;;;;5008744;27;89706;-33
2023/08/06 11:01:16;;;;;;;6.28;5.72;;;20.40;99.90;;;;;;4995811;28;90072;-33
2023/08/06 11:03:43;;;;;;;5.13;4.72;;;20.60;99.90;;;;;;5009774;27;89729;-33
2023/08/06 11:06:10;;;;;;;5.60;4.95;;;20.60;99.90;;;;;;4997629;28;89513;-37
2023/08/06 11:08:38;;;;;;;7.72;5.35;;;20.40;99.90;;;;;;4999943;27;88717;-33
2023/08/06 11:11:11;;;;;;;6.10;5.50;;;20.30;99.90;;;;;;5010247;28;90839;-34
2023/08/06 11:13:38;;;;;;;6.88;6.28;;;20.00;99.90;;;;;;5000858;27;88824;-37
2023/08/06 11:16:05;;;;;;;8.43;6.60;;;19.80;99.90;;;;;;5016797;28;89598;-35
2023/08/06 11:18:32;;;;;;;5.32;4.82;;;19.80;99.90;;;;;;5016863;27;88941;-36
2023/08/06 11:21:00;;;;;;;8.82;5.63;;;19.80;99.90;;;;;;5006818;27;89106;-35
2023/08/06 11:23:28;;;;;;;9.02;5.97;;;19.70;99.90;;;;;;4999887;27;91374;-35
2023/08/06 11:25:54;;;;;;;;;;;19.70;99.90;;;;;;5008119;28;90526;-34
2023/08/06 11:28:21;;;;;;;5.88;5.38;;;19.60;99.90;;;;;;5015344;27;88857;-34
2023/08/06 11:30:47;;;;;;;5.23;4.83;;;19.60;99.90;;;;;;5016351;27;89908;-36
2023/08/06 11:33:13;;;;;;;5.18;4.78;;;19.50;99.90;;;;;;5016705;27;89317;-35
2023/08/06 11:35:39;;;;;;;4.88;4.13;;;19.40;99.90;;;;;;5017053;27;89420;-37
2023/08/06 11:38:05;;;;;;;4.22;3.80;;;19.30;99.90;;;;;;4998085;27;89536;-31
2023/08/06 11:40:32;;;;;;;3.72;3.42;;;19.20;99.90;;;;;;5016914;27;89994;-35
2023/08/06 11:42:58;;;;;;;4.03;3.72;;;19.20;99.90;;;;;;5016461;27;89135;-33
2023/08/06 11:45:26;;;;;;;3.28;2.97;;;19.00;99.90;;;;;;5017278;27;90015;-35
2023/08/06 11:47:53;;;;;;;3.70;3.30;;;19.00;99.90;;;;;;5016083;27;90628;-33
2023/08/06 11:50:25;;;;;;;4.00;3.05;;;19.00;99.90;;;;;;5016687;28;90193;-35
2023/08/06 11:53:00;;;;;;;4.57;3.38;;;19.10;99.90;;;;;;5016386;27;89808;-34
2023/08/06 11:55:28;;;;;;;3.72;3.25;;;19.20;99.90;;;;;;5016174;28;89892;-32
2023/08/06 11:57:54;;;;;;;3.67;3.37;;;19.30;99.90;;;;;;5016152;27;89038;-34
2023/08/06 12:00:22;;;;;;;3.55;3.15;;;19.30;99.90;;;;;;5016555;27;90022;-36
2023/08/06 12:02:50;;;;;;;3.70;3.13;;;19.30;99.90;;;;;;5003947;27;89963;-30
2023/08/06 12:05:17;;;;;;;3.20;3.00;;;19.30;99.90;;;;;;5016458;28;91124;-35
2023/08/06 12:07:48;;;;;;;3.80;3.50;;;19.30;99.90;;;;;;5017164;28;89290;-35
2023/08/06 12:10:14;;;;;;;3.60;3.30;;;19.30;99.90;;;;;;5001220;27;89085;-32
2023/08/06 12:12:40;;;;;;;2.90;2.70;;;19.50;99.90;;;;;;4997024;28;90834;-37
2023/08/06 12:15:07;;;;;;;3.25;2.90;;;19.50;99.90;;;;;;4996713;27;89983;-34
2023/08/06 12:17:33;;;;;;;5.47;3.50;;;19.50;99.90;;;;;;4996720;27;88496;-31
2023/08/06 12:19:58;;;;;;;4.90;3.42;;;19.60;99.90;;;;;;4997562;27;90058;-36
2023/08/06 12:22:24;;;;;;;3.28;3.00;;;19.70;99.90;;;;;;4998327;28;89751;-36
2023/08/06 12:24:50;;;;;;;3.13;2.92;;;19.70;99.90;;;;;;4997392;27;89828;-33
2023/08/06 12:27:16;;;;;;;3.65;3.35;;;19.60;99.90;;;;;;4997418;28;90166;-34
2023/08/06 12:29:43;;;;;;;4.30;2.92;;;19.70;99.90;;;;;;5012360;27;89983;-32